createdAt,value
2018-09-20T00:00:20.785Z,1011.86
2018-09-20T00:01:20.756Z,1011.86
2018-09-20T00:02:20.730Z,1011.83
2018-09-20T00:03:20.714Z,1011.78
2018-09-20T00:04:20.678Z,1011.77
2018-09-20T00:05:20.644Z,1011.78
2018-09-20T00:06:20.616Z,1011.74
2018-09-20T00:07:20.588Z,1011.80
2018-09-20T00:08:20.572Z,1011.79
2018-09-20T00:09:20.532Z,1011.81
2018-09-20T00:10:20.506Z,1011.78
2018-09-20T00:11:20.475Z,1011.78
2018-09-20T00:12:20.447Z,1011.76
2018-09-20T00:13:20.431Z,1011.76
2018-09-20T00:14:20.392Z,1011.78
2018-09-20T00:15:20.367Z,1011.76
2018-09-20T00:16:20.335Z,1011.75
2018-09-20T00:17:20.307Z,1011.76
2018-09-20T00:18:20.294Z,1011.72
2018-09-20T00:19:20.251Z,1011.70
2018-09-20T00:20:20.223Z,1011.70
2018-09-20T00:21:20.204Z,1011.65
2018-09-20T00:22:20.168Z,1011.65
2018-09-20T00:23:20.150Z,1011.63
2018-09-20T00:24:20.117Z,1011.65
2018-09-20T00:25:20.089Z,1011.60
2018-09-20T00:26:20.069Z,1011.61
2018-09-20T00:27:20.040Z,1011.64
2018-09-20T00:28:20.000Z,1011.64
2018-09-20T00:29:19.981Z,1011.60
2018-09-20T00:30:19.944Z,1011.61
2018-09-20T00:31:19.911Z,1011.54
2018-09-20T00:32:19.888Z,1011.57
2018-09-20T00:33:19.857Z,1011.55
2018-09-20T00:34:19.839Z,1011.55
2018-09-20T00:35:19.799Z,1011.55
2018-09-20T00:36:19.777Z,1011.55
2018-09-20T00:37:19.742Z,1011.52
2018-09-20T00:38:19.717Z,1011.48
2018-09-20T00:39:19.702Z,1011.49
2018-09-20T00:40:19.660Z,1011.46
2018-09-20T00:41:19.631Z,1011.45
2018-09-20T00:42:19.605Z,1011.48
2018-09-20T00:43:19.575Z,1011.45
2018-09-20T00:44:19.554Z,1011.41
2018-09-20T00:45:19.518Z,1011.41
2018-09-20T00:46:19.492Z,1011.37
2018-09-20T00:47:19.462Z,1011.37
2018-09-20T00:48:19.433Z,1011.35
2018-09-20T00:49:19.413Z,1011.36
2018-09-20T00:50:19.380Z,1011.36
2018-09-20T00:51:19.350Z,1011.37
2018-09-20T00:52:19.326Z,1011.41
2018-09-20T00:53:19.297Z,1011.42
2018-09-20T00:54:19.272Z,1011.39
2018-09-20T00:55:19.235Z,1011.39
2018-09-20T00:56:19.206Z,1011.36
2018-09-20T00:57:19.176Z,1011.38
2018-09-20T00:58:19.148Z,1011.38
2018-09-20T00:59:19.141Z,1011.39
2018-09-20T01:00:19.093Z,1011.41
2018-09-20T01:01:19.063Z,1011.37
2018-09-20T01:02:19.039Z,1011.36
2018-09-20T01:03:19.005Z,1011.37
2018-09-20T01:04:18.976Z,1011.38
2018-09-20T01:05:18.959Z,1011.37
2018-09-20T01:06:18.922Z,1011.39
2018-09-20T01:07:18.896Z,1011.38
2018-09-20T01:08:18.865Z,1011.45
2018-09-20T01:09:18.840Z,1011.45
2018-09-20T01:10:18.822Z,1011.43
2018-09-20T01:11:18.776Z,1011.47
2018-09-20T01:12:18.758Z,1011.41
2018-09-20T01:13:18.721Z,1011.43
2018-09-20T01:14:18.698Z,1011.44
2018-09-20T01:15:18.672Z,1011.41
2018-09-20T01:16:18.642Z,1011.37
2018-09-20T01:17:18.614Z,1011.33
2018-09-20T01:18:18.577Z,1011.35
2018-09-20T01:19:18.549Z,1011.35
2018-09-20T01:20:18.534Z,1011.33
2018-09-20T01:21:18.493Z,1011.32
2018-09-20T01:22:18.466Z,1011.35
2018-09-20T01:23:18.438Z,1011.31
2018-09-20T01:24:18.407Z,1011.35
2018-09-20T01:25:18.393Z,1011.38
2018-09-20T01:26:18.352Z,1011.38
2018-09-20T01:27:18.324Z,1011.39
2018-09-20T01:28:18.297Z,1011.35
2018-09-20T01:29:18.265Z,1011.38
2018-09-20T01:30:18.245Z,1011.41
2018-09-20T01:31:18.206Z,1011.37
2018-09-20T01:32:18.178Z,1011.40
2018-09-20T01:33:18.149Z,1011.36
2018-09-20T01:34:18.122Z,1011.39
2018-09-20T01:35:18.150Z,1011.40
2018-09-20T01:36:18.067Z,1011.37
2018-09-20T01:37:18.037Z,1011.40
2018-09-20T01:38:18.014Z,1011.38
2018-09-20T01:39:17.983Z,1011.37
2018-09-20T01:40:17.956Z,1011.38
2018-09-20T01:41:17.927Z,1011.36
2018-09-20T01:42:17.892Z,1011.35
2018-09-20T01:43:17.859Z,1011.41
2018-09-20T01:44:17.834Z,1011.41
2018-09-20T01:45:17.813Z,1011.40
2018-09-20T01:46:17.786Z,1011.40
2018-09-20T01:47:17.748Z,1011.37
2018-09-20T01:48:17.719Z,1011.40
2018-09-20T01:49:17.689Z,1011.41
2018-09-20T01:50:17.659Z,1011.37
2018-09-20T01:51:17.640Z,1011.35
2018-09-20T01:52:17.603Z,1011.36
2018-09-20T01:53:17.626Z,1011.37
2018-09-20T01:54:17.545Z,1011.37
2018-09-20T01:55:17.518Z,1011.39
2018-09-20T01:56:17.497Z,1011.39
2018-09-20T01:57:17.458Z,1011.40
2018-09-20T01:58:17.431Z,1011.39
2018-09-20T01:59:17.407Z,1011.42
2018-09-20T02:00:17.376Z,1011.40
2018-09-20T02:01:17.357Z,1011.39
2018-09-20T02:02:17.316Z,1011.37
2018-09-20T02:03:17.285Z,1011.42
2018-09-20T02:04:17.255Z,1011.39
2018-09-20T02:05:17.226Z,1011.43
2018-09-20T02:06:17.213Z,1011.41
2018-09-20T02:07:17.166Z,1011.44
2018-09-20T02:08:17.139Z,1011.44
2018-09-20T02:09:17.110Z,1011.41
2018-09-20T02:10:17.081Z,1011.39
2018-09-20T02:11:17.054Z,1011.45
2018-09-20T02:12:17.032Z,1011.43
2018-09-20T02:13:16.992Z,1011.42
2018-09-20T02:14:16.964Z,1011.44
2018-09-20T02:15:16.936Z,1011.45
2018-09-20T02:16:16.915Z,1011.49
2018-09-20T02:17:16.890Z,1011.46
2018-09-20T02:18:16.852Z,1011.48
2018-09-20T02:19:16.827Z,1011.45
2018-09-20T02:20:16.793Z,1011.47
2018-09-20T02:21:16.761Z,1011.45
2018-09-20T02:22:16.744Z,1011.49
2018-09-20T02:23:16.704Z,1011.48
2018-09-20T02:24:16.673Z,1011.47
2018-09-20T02:25:16.645Z,1011.52
2018-09-20T02:26:16.622Z,1011.50
2018-09-20T02:27:16.608Z,1011.52
2018-09-20T02:28:16.558Z,1011.54
2018-09-20T02:29:16.535Z,1011.56
2018-09-20T02:30:16.504Z,1011.53
2018-09-20T02:31:16.473Z,1011.53
2018-09-20T02:32:16.442Z,1011.57
2018-09-20T02:33:16.424Z,1011.54
2018-09-20T02:34:16.384Z,1011.53
2018-09-20T02:35:16.355Z,1011.58
2018-09-20T02:36:16.327Z,1011.54
2018-09-20T02:37:16.295Z,1011.55
2018-09-20T02:38:16.281Z,1011.54
2018-09-20T02:39:16.255Z,1011.52
2018-09-20T02:40:16.209Z,1011.53
2018-09-20T02:41:16.181Z,1011.57
2018-09-20T02:42:16.153Z,1011.54
2018-09-20T02:43:16.132Z,1011.52
2018-09-20T02:44:16.095Z,1011.52
2018-09-20T02:45:16.066Z,1011.48
2018-09-20T02:46:16.040Z,1011.49
2018-09-20T02:47:16.007Z,1011.48
2018-09-20T02:48:15.989Z,1011.49
2018-09-20T02:49:15.949Z,1011.44
2018-09-20T02:50:15.918Z,1011.47
2018-09-20T02:51:15.889Z,1011.49
2018-09-20T02:52:15.860Z,1011.43
2018-09-20T02:53:15.856Z,1011.44
2018-09-20T02:54:15.799Z,1011.44
2018-09-20T02:55:15.776Z,1011.42
2018-09-20T02:56:15.741Z,1011.43
2018-09-20T02:57:15.715Z,1011.38
2018-09-20T02:58:15.685Z,1011.42
2018-09-20T02:59:15.663Z,1011.39
2018-09-20T03:00:15.629Z,1011.38
2018-09-20T03:01:15.596Z,1011.34
2018-09-20T03:02:15.571Z,1011.34
2018-09-20T03:03:15.537Z,1011.36
2018-09-20T03:04:15.521Z,1011.36
2018-09-20T03:05:15.482Z,1011.33
2018-09-20T03:06:15.452Z,1011.32
2018-09-20T03:07:15.431Z,1011.29
2018-09-20T03:08:15.389Z,1011.31
2018-09-20T03:09:15.392Z,1011.32
2018-09-20T03:10:15.334Z,1011.34
2018-09-20T03:11:15.305Z,1011.36
2018-09-20T03:12:15.272Z,1011.38
2018-09-20T03:13:15.246Z,1011.31
2018-09-20T03:14:15.219Z,1011.27
2018-09-20T03:15:15.195Z,1011.31
2018-09-20T03:16:15.165Z,1011.31
2018-09-20T03:17:15.747Z,1011.36
2018-09-20T03:18:15.102Z,1011.36
2018-09-20T03:19:15.070Z,1011.32
2018-09-20T03:20:15.056Z,1011.35
2018-09-20T03:21:15.013Z,1011.35
2018-09-20T03:22:14.983Z,1011.31
2018-09-20T03:23:14.957Z,1011.32
2018-09-20T03:24:14.927Z,1011.35
2018-09-20T03:25:14.916Z,1011.33
2018-09-20T03:26:14.870Z,1011.37
2018-09-20T03:27:14.836Z,1011.34
2018-09-20T03:28:14.804Z,1011.35
2018-09-20T03:29:14.781Z,1011.33
2018-09-20T03:30:14.801Z,1011.36
2018-09-20T03:31:14.723Z,1011.34
2018-09-20T03:32:14.693Z,1011.34
2018-09-20T03:33:14.665Z,1011.35
2018-09-20T03:34:14.635Z,1011.36
2018-09-20T03:35:14.631Z,1011.40
2018-09-20T03:36:14.573Z,1011.34
2018-09-20T03:37:14.543Z,1011.41
2018-09-20T03:38:14.520Z,1011.39
2018-09-20T03:39:14.483Z,1011.41
2018-09-20T03:40:14.467Z,1011.42
2018-09-20T03:41:14.428Z,1011.42
2018-09-20T03:42:14.397Z,1011.41
2018-09-20T03:43:14.367Z,1011.46
2018-09-20T03:44:14.337Z,1011.43
2018-09-20T03:45:14.371Z,1011.44
2018-09-20T03:46:14.277Z,1011.40
2018-09-20T03:47:14.250Z,1011.41
2018-09-20T03:48:14.228Z,1011.44
2018-09-20T03:49:14.194Z,1011.46
2018-09-20T03:50:14.163Z,1011.47
2018-09-20T03:51:14.144Z,1011.41
2018-09-20T03:52:14.104Z,1011.41
2018-09-20T03:53:14.072Z,1011.41
2018-09-20T03:54:14.046Z,1011.45
2018-09-20T03:55:14.019Z,1011.42
2018-09-20T03:56:13.994Z,1011.43
2018-09-20T03:57:13.961Z,1011.46
2018-09-20T03:58:13.937Z,1011.47
2018-09-20T03:59:13.899Z,1011.47
2018-09-20T04:00:13.868Z,1011.47
2018-09-20T04:01:13.856Z,1011.46
2018-09-20T04:02:13.815Z,1011.45
2018-09-20T04:03:13.786Z,1011.47
2018-09-20T04:04:13.754Z,1011.46
2018-09-20T04:05:13.723Z,1011.49
2018-09-20T04:06:13.713Z,1011.42
2018-09-20T04:07:13.662Z,1011.45
2018-09-20T04:08:13.642Z,1011.44
2018-09-20T04:09:13.613Z,1011.43
2018-09-20T04:10:13.577Z,1011.43
2018-09-20T04:11:13.545Z,1011.42
2018-09-20T04:12:13.528Z,1011.40
2018-09-20T04:13:13.487Z,1011.41
2018-09-20T04:14:13.457Z,1011.41
2018-09-20T04:15:13.429Z,1011.45
2018-09-20T04:16:13.399Z,1011.46
2018-09-20T04:17:13.384Z,1011.47
2018-09-20T04:18:13.340Z,1011.48
2018-09-20T04:19:13.308Z,1011.44
2018-09-20T04:20:13.280Z,1011.49
2018-09-20T04:21:13.252Z,1011.47
2018-09-20T04:22:13.229Z,1011.40
2018-09-20T04:23:13.197Z,1011.43
2018-09-20T04:24:13.162Z,1011.43
2018-09-20T04:25:13.134Z,1011.41
2018-09-20T04:26:13.100Z,1011.42
2018-09-20T04:27:13.080Z,1011.44
2018-09-20T04:28:13.045Z,1011.41
2018-09-20T04:29:13.015Z,1011.43
2018-09-20T04:30:12.987Z,1011.39
2018-09-20T04:31:12.956Z,1011.39
2018-09-20T04:32:12.935Z,1011.37
2018-09-20T04:33:12.908Z,1011.39
2018-09-20T04:34:12.868Z,1011.37
2018-09-20T04:35:12.840Z,1011.38
2018-09-20T04:36:12.808Z,1011.39
2018-09-20T04:37:12.800Z,1011.42
2018-09-20T04:38:12.749Z,1011.39
2018-09-20T04:39:12.719Z,1011.43
2018-09-20T04:40:12.694Z,1011.44
2018-09-20T04:41:12.662Z,1011.45
2018-09-20T04:42:12.629Z,1011.46
2018-09-20T04:43:12.608Z,1011.47
2018-09-20T04:44:12.574Z,1011.46
2018-09-20T04:45:12.545Z,1011.49
2018-09-20T04:46:12.512Z,1011.49
2018-09-20T04:47:12.481Z,1011.47
2018-09-20T04:48:12.465Z,1011.49
2018-09-20T04:49:12.420Z,1011.44
2018-09-20T04:50:12.398Z,1011.46
2018-09-20T04:51:12.364Z,1011.46
2018-09-20T04:52:12.388Z,1011.49
2018-09-20T04:53:12.364Z,1011.48
2018-09-20T04:54:12.275Z,1011.50
2018-09-20T04:55:12.266Z,1011.56
2018-09-20T04:56:12.214Z,1011.53
2018-09-20T04:57:12.187Z,1011.52
2018-09-20T04:58:12.163Z,1011.52
2018-09-20T04:59:12.136Z,1011.51
2018-09-20T05:00:12.108Z,1011.48
2018-09-20T05:01:12.072Z,1011.42
2018-09-20T05:02:12.040Z,1011.49
2018-09-20T05:03:12.008Z,1011.45
2018-09-20T05:04:11.988Z,1011.48
2018-09-20T05:05:11.950Z,1011.47
2018-09-20T05:06:11.921Z,1011.45
2018-09-20T05:07:11.993Z,1011.49
2018-09-20T05:08:11.860Z,1011.50
2018-09-20T05:09:11.835Z,1011.47
2018-09-20T05:10:11.802Z,1011.47
2018-09-20T05:11:11.817Z,1011.45
2018-09-20T05:12:11.753Z,1011.45
2018-09-20T05:13:11.710Z,1011.41
2018-09-20T05:14:11.691Z,1011.37
2018-09-20T05:15:11.658Z,1011.39
2018-09-20T05:16:11.625Z,1011.42
2018-09-20T05:17:11.590Z,1011.40
2018-09-20T05:18:11.564Z,1011.44
2018-09-20T05:19:11.541Z,1011.41
2018-09-20T05:20:11.536Z,1011.42
2018-09-20T05:21:11.477Z,1011.45
2018-09-20T05:22:11.445Z,1011.40
2018-09-20T05:23:11.413Z,1011.40
2018-09-20T05:24:11.393Z,1011.40
2018-09-20T05:25:11.363Z,1011.38
2018-09-20T05:26:11.324Z,1011.36
2018-09-20T05:27:11.295Z,1011.38
2018-09-20T05:28:11.302Z,1011.41
2018-09-20T05:29:11.295Z,1011.39
2018-09-20T05:30:11.204Z,1011.40
2018-09-20T05:31:11.176Z,1011.42
2018-09-20T05:32:11.146Z,1011.38
2018-09-20T05:33:11.178Z,1011.32
2018-09-20T05:34:11.087Z,1011.32
2018-09-20T05:35:11.080Z,1011.33
2018-09-20T05:36:11.021Z,1011.37
2018-09-20T05:37:10.999Z,1011.41
2018-09-20T05:38:10.973Z,1011.37
2018-09-20T05:39:10.935Z,1011.40
2018-09-20T05:40:10.930Z,1011.41
2018-09-20T05:41:10.879Z,1011.44
2018-09-20T05:42:10.848Z,1011.43
2018-09-20T05:43:10.818Z,1011.43
2018-09-20T05:44:10.787Z,1011.42
2018-09-20T05:45:10.758Z,1011.44
2018-09-20T05:46:10.743Z,1011.43
2018-09-20T05:47:10.705Z,1011.44
2018-09-20T05:48:10.678Z,1011.44
2018-09-20T05:49:10.647Z,1011.49
2018-09-20T05:50:10.613Z,1011.51
2018-09-20T05:51:10.594Z,1011.41
2018-09-20T05:52:10.550Z,1011.46
2018-09-20T05:53:10.521Z,1011.42
2018-09-20T05:54:10.493Z,1011.42
2018-09-20T05:55:10.464Z,1011.40
2018-09-20T05:56:10.448Z,1011.42
2018-09-20T05:57:10.407Z,1011.42
2018-09-20T05:58:10.374Z,1011.39
2018-09-20T05:59:10.401Z,1011.43
2018-09-20T06:00:10.320Z,1011.41
2018-09-20T06:01:10.298Z,1011.40
2018-09-20T06:02:10.264Z,1011.42
2018-09-20T06:03:10.222Z,1011.42
2018-09-20T06:04:10.198Z,1011.42
2018-09-20T06:05:10.170Z,1011.36
2018-09-20T06:06:10.161Z,1011.39
2018-09-20T06:07:10.109Z,1011.36
2018-09-20T06:08:10.081Z,1011.39
2018-09-20T06:09:10.049Z,1011.40
2018-09-20T06:10:10.022Z,1011.34
2018-09-20T06:11:09.989Z,1011.40
2018-09-20T06:12:09.970Z,1011.38
2018-09-20T06:13:09.947Z,1011.45
2018-09-20T06:14:09.904Z,1011.38
2018-09-20T06:15:09.873Z,1011.40
2018-09-20T06:16:09.857Z,1011.41
2018-09-20T06:17:09.823Z,1011.38
2018-09-20T06:18:09.789Z,1011.38
2018-09-20T06:19:09.759Z,1011.42
2018-09-20T06:20:09.723Z,1011.45
2018-09-20T06:21:09.706Z,1011.41
2018-09-20T06:22:09.676Z,1011.40
2018-09-20T06:23:09.639Z,1011.42
2018-09-20T06:24:09.609Z,1011.44
2018-09-20T06:25:09.584Z,1011.40
2018-09-20T06:26:09.554Z,1011.37
2018-09-20T06:27:09.553Z,1011.38
2018-09-20T06:28:09.491Z,1011.38
2018-09-20T06:29:09.465Z,1011.37
2018-09-20T06:30:09.440Z,1011.41
2018-09-20T06:31:09.407Z,1011.40
2018-09-20T06:32:09.376Z,1011.44
2018-09-20T06:33:09.357Z,1011.38
2018-09-20T06:34:09.322Z,1011.44
2018-09-20T06:35:09.290Z,1011.41
2018-09-20T06:36:09.262Z,1011.38
2018-09-20T06:37:09.234Z,1011.39
2018-09-20T06:38:09.212Z,1011.43
2018-09-20T06:39:09.172Z,1011.43
2018-09-20T06:40:09.143Z,1011.45
2018-09-20T06:41:09.134Z,1011.45
2018-09-20T06:42:09.088Z,1011.49
2018-09-20T06:43:09.065Z,1011.43
2018-09-20T06:44:09.026Z,1011.48
2018-09-20T06:45:08.999Z,1011.43
2018-09-20T06:46:08.970Z,1011.43
2018-09-20T06:47:08.942Z,1011.47
2018-09-20T06:48:08.928Z,1011.47
2018-09-20T06:49:08.891Z,1011.48
2018-09-20T06:50:08.862Z,1011.48
2018-09-20T06:51:08.827Z,1011.46
2018-09-20T06:52:08.803Z,1011.42
2018-09-20T06:53:08.784Z,1011.42
2018-09-20T06:54:08.741Z,1011.43
2018-09-20T06:55:08.713Z,1011.43
2018-09-20T06:56:08.684Z,1011.36
2018-09-20T06:57:08.655Z,1011.39
2018-09-20T06:58:08.656Z,1011.41
2018-09-20T06:59:08.601Z,1011.39
2018-09-20T07:00:08.568Z,1011.41
2018-09-20T07:01:08.542Z,1011.39
2018-09-20T07:02:08.515Z,1011.43
2018-09-20T07:03:08.517Z,1011.44
2018-09-20T07:04:08.466Z,1011.44
2018-09-20T07:05:08.430Z,1011.43
2018-09-20T07:06:08.401Z,1011.36
2018-09-20T07:07:08.374Z,1011.35
2018-09-20T07:08:08.346Z,1011.40
2018-09-20T07:09:08.341Z,1011.34
2018-09-20T07:10:08.289Z,1011.35
2018-09-20T07:11:08.261Z,1011.36
2018-09-20T07:12:08.235Z,1011.34
2018-09-20T07:13:08.229Z,1011.37
2018-09-20T07:14:08.232Z,1011.35
2018-09-20T07:15:08.150Z,1011.31
2018-09-20T07:16:08.124Z,1011.33
2018-09-20T07:17:08.098Z,1011.33
2018-09-20T07:18:08.067Z,1011.36
2018-09-20T07:19:08.173Z,1011.32
2018-09-20T07:20:08.014Z,1011.35
2018-09-20T07:21:07.984Z,1011.30
2018-09-20T07:22:07.971Z,1011.34
2018-09-20T07:23:07.927Z,1011.35
2018-09-20T07:24:07.905Z,1011.34
2018-09-20T07:25:07.910Z,1011.32
2018-09-20T07:26:07.845Z,1011.36
2018-09-20T07:27:07.816Z,1011.34
2018-09-20T07:28:07.785Z,1011.33
2018-09-20T07:29:07.761Z,1011.32
2018-09-20T07:30:07.740Z,1011.28
2018-09-20T07:31:07.703Z,1011.32
2018-09-20T07:32:07.679Z,1011.33
2018-09-20T07:33:07.651Z,1011.31
2018-09-20T07:34:07.628Z,1011.33
2018-09-20T07:35:07.609Z,1011.32
2018-09-20T07:36:07.571Z,1011.33
2018-09-20T07:37:07.544Z,1011.37
2018-09-20T07:38:07.505Z,1011.35
2018-09-20T07:39:07.497Z,1011.36
2018-09-20T07:40:07.469Z,1011.35
2018-09-20T07:41:07.430Z,1011.34
2018-09-20T07:42:07.400Z,1011.35
2018-09-20T07:43:07.380Z,1011.30
2018-09-20T07:44:07.346Z,1011.32
2018-09-20T07:45:07.327Z,1011.30
2018-09-20T07:46:07.292Z,1011.29
2018-09-20T07:47:07.265Z,1011.32
2018-09-20T07:48:07.235Z,1011.27
2018-09-20T07:49:07.210Z,1011.26
2018-09-20T07:50:07.196Z,1011.26
2018-09-20T07:51:07.160Z,1011.30
2018-09-20T07:52:07.129Z,1011.32
2018-09-20T07:53:07.106Z,1011.37
2018-09-20T07:54:08.916Z,1011.32
2018-09-20T07:55:07.061Z,1011.30
2018-09-20T07:56:08.002Z,1011.31
2018-09-20T07:57:07.007Z,1011.33
2018-09-20T07:58:09.423Z,1011.34
2018-09-20T07:59:06.936Z,1011.32
2018-09-20T08:00:06.926Z,1011.32
2018-09-20T08:01:06.889Z,1011.32
2018-09-20T08:02:06.932Z,1011.36
2018-09-20T08:03:06.849Z,1011.36
2018-09-20T08:04:06.815Z,1011.38
2018-09-20T08:05:06.804Z,1011.38
2018-09-20T08:06:06.756Z,1011.40
2018-09-20T08:07:06.829Z,1011.38
2018-09-20T08:08:06.702Z,1011.43
2018-09-20T08:09:06.678Z,1011.41
2018-09-20T08:10:06.656Z,1011.38
2018-09-20T08:11:06.629Z,1011.37
2018-09-20T08:12:06.610Z,1011.40
2018-09-20T08:13:06.574Z,1011.42
2018-09-20T08:14:06.543Z,1011.42
2018-09-20T08:15:06.521Z,1011.38
2018-09-20T08:16:06.516Z,1011.37
2018-09-20T08:17:06.468Z,1011.44
2018-09-20T08:18:06.439Z,1011.40
2018-09-20T08:19:06.425Z,1011.45
2018-09-20T08:20:06.385Z,1011.45
2018-09-20T08:21:06.359Z,1011.46
2018-09-20T08:22:06.354Z,1011.44
2018-09-20T08:23:06.306Z,1011.45
2018-09-20T08:24:06.280Z,1011.42
2018-09-20T08:25:06.254Z,1011.48
2018-09-20T08:26:06.298Z,1011.45
2018-09-20T08:27:06.209Z,1011.46
2018-09-20T08:28:06.177Z,1011.45
2018-09-20T08:29:06.148Z,1011.42
2018-09-20T08:30:06.126Z,1011.44
2018-09-20T08:31:06.097Z,1011.42
2018-09-20T08:32:06.089Z,1011.46
2018-09-20T08:33:06.048Z,1011.46
2018-09-20T08:34:06.053Z,1011.43
2018-09-20T08:35:05.995Z,1011.41
2018-09-20T08:36:05.963Z,1011.47
2018-09-20T08:37:06.065Z,1011.47
2018-09-20T08:38:05.914Z,1011.42
2018-09-20T08:39:05.890Z,1011.43
2018-09-20T08:40:05.861Z,1011.44
2018-09-20T08:41:05.838Z,1011.42
2018-09-20T08:42:05.864Z,1011.42
2018-09-20T08:43:05.786Z,1011.40
2018-09-20T08:44:05.758Z,1011.40
2018-09-20T08:45:05.733Z,1011.43
2018-09-20T08:46:05.779Z,1011.47
2018-09-20T08:47:05.692Z,1011.45
2018-09-20T08:48:05.656Z,1011.40
2018-09-20T08:49:05.631Z,1011.41
2018-09-20T08:50:05.603Z,1011.36
2018-09-20T08:51:05.613Z,1011.38
2018-09-20T08:52:05.557Z,1011.35
2018-09-20T08:53:05.525Z,1011.37
2018-09-20T08:54:05.499Z,1011.38
2018-09-20T08:55:05.472Z,1011.40
2018-09-20T08:56:05.521Z,1011.38
2018-09-20T08:57:05.508Z,1011.38
2018-09-20T08:58:05.397Z,1011.40
2018-09-20T08:59:05.367Z,1011.36
2018-09-20T09:00:05.344Z,1011.35
2018-09-20T09:01:05.315Z,1011.33
2018-09-20T09:02:05.290Z,1011.38
2018-09-20T09:03:05.274Z,1011.37
2018-09-20T09:04:05.237Z,1011.36
2018-09-20T09:05:05.215Z,1011.38
2018-09-20T09:06:05.190Z,1011.34
2018-09-20T09:07:05.167Z,1011.36
2018-09-20T09:08:05.155Z,1011.32
2018-09-20T09:09:05.109Z,1011.36
2018-09-20T09:10:05.079Z,1011.31
2018-09-20T09:11:05.061Z,1011.27
2018-09-20T09:12:06.543Z,1011.37
2018-09-20T09:13:05.001Z,1011.25
2018-09-20T09:14:04.996Z,1011.24
2018-09-20T09:15:04.961Z,1011.19
2018-09-20T09:16:04.924Z,1011.19
2018-09-20T09:17:04.900Z,1011.23
2018-09-20T09:18:04.879Z,1011.15
2018-09-20T09:19:04.855Z,1011.09
2018-09-20T09:20:04.832Z,1011.11
2018-09-20T09:21:04.797Z,1011.16
2018-09-20T09:22:04.772Z,1011.05
2018-09-20T09:23:04.746Z,1011.06
2018-09-20T09:24:05.484Z,1011.06
2018-09-20T09:25:04.693Z,1010.98
2018-09-20T09:26:04.666Z,1011.01
2018-09-20T09:27:04.639Z,1010.98
2018-09-20T09:28:04.615Z,1010.94
2018-09-20T09:29:04.596Z,1010.98
2018-09-20T09:30:04.563Z,1010.96
2018-09-20T09:31:04.536Z,1010.88
2018-09-20T09:32:04.511Z,1010.94
2018-09-20T09:33:04.489Z,1010.92
2018-09-20T09:34:04.523Z,1010.92
2018-09-20T09:35:04.431Z,1010.90
2018-09-20T09:36:04.408Z,1010.88
2018-09-20T09:37:04.386Z,1010.91
2018-09-20T09:38:04.355Z,1010.90
2018-09-20T09:39:04.329Z,1010.85
2018-09-20T09:40:04.318Z,1010.81
2018-09-20T09:41:04.282Z,1010.86
2018-09-20T09:42:04.293Z,1010.85
2018-09-20T09:43:04.230Z,1010.91
2018-09-20T09:44:04.199Z,1010.84
2018-09-20T09:45:04.186Z,1010.85
2018-09-20T09:46:04.155Z,1010.82
2018-09-20T09:47:04.184Z,1010.78
2018-09-20T09:48:04.159Z,1010.93
2018-09-20T09:49:04.075Z,1010.79
2018-09-20T09:50:04.057Z,1010.87
2018-09-20T09:51:04.025Z,1010.83
2018-09-20T09:52:04.000Z,1010.82
2018-09-20T09:53:03.972Z,1010.82
2018-09-20T09:54:03.945Z,1010.79
2018-09-20T09:55:03.930Z,1010.84
2018-09-20T09:56:03.901Z,1010.80
2018-09-20T09:57:03.872Z,1010.86
2018-09-20T09:58:03.846Z,1010.87
2018-09-20T09:59:03.819Z,1010.89
2018-09-20T10:00:03.816Z,1010.79
2018-09-20T10:01:03.772Z,1010.84
2018-09-20T10:02:03.750Z,1010.80
2018-09-20T10:03:03.718Z,1010.76
2018-09-20T10:04:03.696Z,1010.77
2018-09-20T10:05:03.669Z,1010.80
2018-09-20T10:06:03.654Z,1010.73
2018-09-20T10:07:03.658Z,1010.67
2018-09-20T10:08:03.593Z,1010.65
2018-09-20T10:09:03.575Z,1010.62
2018-09-20T10:10:03.547Z,1010.63
2018-09-20T10:11:03.535Z,1010.66
2018-09-20T10:12:03.493Z,1010.61
2018-09-20T10:13:03.465Z,1010.61
2018-09-20T10:14:03.446Z,1010.60
2018-09-20T10:15:03.419Z,1010.60
2018-09-20T10:16:03.399Z,1010.67
2018-09-20T10:17:03.382Z,1010.66
2018-09-20T10:18:03.348Z,1010.56
2018-09-20T10:19:03.315Z,1010.62
2018-09-20T10:20:03.406Z,1010.61
2018-09-20T10:21:03.279Z,1010.53
2018-09-20T10:22:03.245Z,1010.54
2018-09-20T10:23:03.217Z,1010.59
2018-09-20T10:24:03.235Z,1010.56
2018-09-20T10:25:03.228Z,1010.55
2018-09-20T10:26:03.152Z,1010.56
2018-09-20T10:27:03.121Z,1010.53
2018-09-20T10:28:03.149Z,1010.54
2018-09-20T10:29:03.084Z,1010.53
2018-09-20T10:30:03.053Z,1010.46
2018-09-20T10:31:03.040Z,1010.43
2018-09-20T10:32:03.027Z,1010.43
2018-09-20T10:33:02.970Z,1010.46
2018-09-20T10:34:02.977Z,1010.45
2018-09-20T10:35:02.919Z,1010.45
2018-09-20T10:36:02.898Z,1010.51
2018-09-20T10:37:02.881Z,1010.41
2018-09-20T10:38:02.847Z,1010.50
2018-09-20T10:39:03.678Z,1010.43
2018-09-20T10:40:02.799Z,1010.37
2018-09-20T10:41:02.777Z,1010.40
2018-09-20T10:42:02.757Z,1010.41
2018-09-20T10:43:02.722Z,1010.48
2018-09-20T10:44:02.701Z,1010.43
2018-09-20T10:45:02.676Z,1010.41
2018-09-20T10:46:02.650Z,1010.49
2018-09-20T10:47:02.708Z,1010.41
2018-09-20T10:48:02.598Z,1010.33
2018-09-20T10:49:02.575Z,1010.43
2018-09-20T10:50:02.552Z,1010.44
2018-09-20T10:51:02.525Z,1010.38
2018-09-20T10:52:02.499Z,1010.36
2018-09-20T10:53:02.492Z,1010.24
2018-09-20T10:54:02.452Z,1010.34
2018-09-20T10:55:02.432Z,1010.29
2018-09-20T10:56:02.404Z,1010.36
2018-09-20T10:57:02.380Z,1010.35
2018-09-20T10:58:02.362Z,1010.31
2018-09-20T10:59:02.327Z,1010.32
2018-09-20T11:00:02.304Z,1010.30
2018-09-20T11:01:02.274Z,1010.30
2018-09-20T11:02:02.260Z,1010.31
2018-09-20T11:03:02.264Z,1010.30
2018-09-20T11:04:02.209Z,1010.26
2018-09-20T11:05:02.708Z,1010.23
2018-09-20T11:06:02.164Z,1010.24
2018-09-20T11:07:02.141Z,1010.25
2018-09-20T11:08:02.117Z,1010.21
2018-09-20T11:09:02.097Z,1010.30
2018-09-20T11:10:02.064Z,1010.24
2018-09-20T11:11:02.121Z,1010.23
2018-09-20T11:12:02.014Z,1010.28
2018-09-20T11:13:02.012Z,1010.34
2018-09-20T11:14:01.967Z,1010.21
2018-09-20T11:15:01.944Z,1010.23
2018-09-20T11:16:01.933Z,1010.27
2018-09-20T11:17:01.898Z,1010.27
2018-09-20T11:18:01.895Z,1010.23
2018-09-20T11:19:01.845Z,1010.25
2018-09-20T11:20:01.820Z,1010.22
2018-09-20T11:21:01.802Z,1010.23
2018-09-20T11:22:01.897Z,1010.25
2018-09-20T11:23:01.749Z,1010.21
2018-09-20T11:24:01.732Z,1010.34
2018-09-20T11:25:01.702Z,1010.26
2018-09-20T11:26:01.696Z,1010.23
2018-09-20T11:27:01.654Z,1010.23
2018-09-20T11:28:01.634Z,1010.22
2018-09-20T11:29:01.615Z,1010.22
2018-09-20T11:30:01.583Z,1010.29
2018-09-20T11:31:01.563Z,1010.18
2018-09-20T11:32:01.537Z,1010.23
2018-09-20T11:33:01.508Z,1010.20
2018-09-20T11:34:01.496Z,1010.31
2018-09-20T11:35:01.463Z,1010.27
2018-09-20T11:36:01.444Z,1010.30
2018-09-20T11:37:01.413Z,1010.28
2018-09-20T11:38:01.391Z,1010.30
2018-09-20T11:39:01.376Z,1010.28
2018-09-20T11:40:01.339Z,1010.31
2018-09-20T11:41:01.325Z,1010.39
2018-09-20T11:42:01.292Z,1010.42
2018-09-20T11:43:01.271Z,1010.26
2018-09-20T11:44:01.257Z,1010.37
2018-09-20T11:45:01.225Z,1010.21
2018-09-20T11:46:01.198Z,1010.31
2018-09-20T11:47:01.194Z,1010.31
2018-09-20T11:48:01.149Z,1010.28
2018-09-20T11:49:01.150Z,1010.30
2018-09-20T11:50:01.104Z,1010.33
2018-09-20T11:51:01.079Z,1010.34
2018-09-20T11:52:01.073Z,1010.29
2018-09-20T11:53:01.063Z,1010.25
2018-09-20T11:54:01.009Z,1010.32
2018-09-20T11:55:01.001Z,1010.26
2018-09-20T11:56:00.959Z,1010.21
2018-09-20T11:57:00.935Z,1010.25
2018-09-20T11:58:00.949Z,1010.19
2018-09-20T11:59:01.262Z,1010.26
2018-09-20T12:00:00.951Z,1010.23
2018-09-20T12:01:00.852Z,1010.16
2018-09-20T12:02:00.881Z,1010.21
2018-09-20T12:03:00.795Z,1010.18
2018-09-20T12:04:00.768Z,1010.15
2018-09-20T12:05:00.757Z,1010.21